Latest Coastal Weather Observations for Frederick Reef

IDQ60701

Issued at 3:51 pm EST Saturday 28 May 2016 (issued every 10 minutes, with the page automatically refreshed every 10 minutes)

About coastal observations | Map of coastal stations | Coastal observations for QLD | Marine services | Other Formats
Station Details ID: 200701 Name: FREDERICK REEF Lat: -20.94 Lon: 154.40 Height: 4.9 m
Data from the previous 72 hours. | See also: Recent months for locations in Queensland
Date/Time
EST
Temp

°C
Wind Pressure Rain
since 9am
mm
Weather Cloud Vis
km
Sea
Height
m
Swell
Dir
 
Speed
knots
Gust
knots
hPa Trend Height
m
Period
s
Dir
28/03:30pm 27.0 NW 14 16 1012.8 - - - - - - - - -
28/03:00pm 26.8 NW 15 16 1012.6 - - - - - - - - -
28/02:30pm 26.6 NW 15 16 1012.5 - - - - - - - - -
28/02:00pm 26.6 NW 14 16 1012.4 - - - - - - - - -
28/01:30pm 26.5 NW 15 16 1012.6 - - - - - - - - -
28/01:00pm 26.5 NW 15 16 1012.6 - - - - - - - - -
28/12:30pm 26.3 NW 15 16 1012.9 - - - - - - - - -
28/12:00pm 26.3 NW 14 15 1013.2 - - - - - - - - -
28/11:30am 26.5 NW 14 15 1013.8 - - - - - - - - -
28/11:00am 26.3 WNW 14 15 1014.2 - - - - - - - - -
28/10:30am 26.5 NW 13 15 1014.6 - - - - - - - - -
28/10:00am 26.3 NW 13 14 1014.7 - - - - - - - - -
28/09:30am 26.4 NW 13 15 1015.0 - - - - - - - - -
28/09:00am 26.5 NW 12 14 1015.1 - - - - - - - - -
28/08:30am 26.3 WNW 12 14 1015.3 - - - - - - - - -
28/08:00am 26.3 WNW 12 14 1015.0 - - - - - - - - -
28/07:30am 26.3 WNW 13 15 1014.9 - - - - - - - - -
28/07:00am 26.2 WNW 14 15 1014.6 - - - - - - - - -
28/06:00am 26.0 WNW 13 - 1014.1 - - - - - - - - -
28/05:00am 26.2 WNW 14 - 1013.6 - - - - - - - - -
28/04:00am 26.0 NW 16 17 1012.1 - - - - - - - - -
28/03:30am 25.9 NW 16 18 1012.0 - - - - - - - - -
28/03:00am 25.9 NW 17 19 1011.8 - - - - - - - - -
28/02:30am 25.9 NW 17 20 1011.9 - - - - - - - - -
28/02:00am 26.0 NW 16 19 1011.7 - - - - - - - - -
28/01:30am 25.8 NW 17 19 1011.8 - - - - - - - - -
28/01:00am 26.1 NW 18 19 1012.1 - - - - - - - - -
28/12:30am 25.8 NW 16 18 1012.4 - - - - - - - - -
28/12:00am 26.0 NW 18 20 1012.2 - - - - - - - - -
 
Date/Time
EST
Temp

°C
Wind Pressure Rain
since 9am
mm
Weather Cloud Vis
km
Sea
Height
m
Swell
Dir
 
Speed
knots
Gust
knots
hPa Trend Height
m
Period
s
Dir
27/11:30pm 26.1 NW 17 19 1012.4 - - - - - - - - -
27/11:00pm 26.0 NW 17 19 1012.6 - - - - - - - - -
27/10:30pm 25.9 NW 16 18 1013.0 - - - - - - - - -
27/10:00pm 26.0 NW 16 18 1013.0 - - - - - - - - -
27/09:30pm 25.9 NW 15 17 1012.9 - - - - - - - - -
27/09:00pm 25.9 NW 16 17 1012.5 - - - - - - - - -
27/08:30pm 26.2 NW 15 17 1012.6 - - - - - - - - -
27/08:00pm 26.1 NW 15 17 1012.4 - - - - - - - - -
27/07:30pm 26.1 NW 16 18 1012.3 - - - - - - - - -
27/07:00pm 25.9 NW 16 17 1012.0 - - - - - - - - -
27/06:30pm 26.1 NW 16 19 1011.8 - - - - - - - - -
27/06:00pm 26.0 NW 17 19 1011.5 - - - - - - - - -
27/05:30pm 26.1 NW 16 19 1011.4 - - - - - - - - -
27/05:00pm 26.1 WNW 17 19 1011.2 - - - - - - - - -
27/04:30pm 26.2 WNW 18 20 1011.3 - - - - - - - - -
27/04:00pm 26.4 NW 19 21 1010.9 - - - - - - - - -
27/03:30pm 26.2 NW 19 22 1010.9 - - - - - - - - -
27/03:00pm 26.1 WNW 19 21 1010.8 - - - - - - - - -
27/02:30pm 26.0 NW 19 21 1010.9 - - - - - - - - -
27/02:00pm 26.0 WNW 19 21 1011.0 - - - - - - - - -
27/01:30pm 26.2 NW 20 22 1011.3 - - - - - - - - -
27/01:00pm 26.3 NW 20 23 1011.4 - - - - - - - - -
27/12:30pm 26.2 NW 19 21 1011.8 - - - - - - - - -
27/12:00pm 26.1 NW 18 22 1012.0 - - - - - - - - -
27/11:30am 26.7 NW 18 20 1012.8 - - - - - - - - -
27/11:00am 26.1 NNW 18 21 1013.0 - - - - - - - - -
27/10:30am 26.1 NW 16 18 1013.5 - - - - - - - - -
27/10:00am 25.9 NW 15 18 1013.9 - - - - - - - - -
27/09:30am 26.0 NW 16 19 1014.6 - - - - - - - - -
27/09:00am 26.1 NNW 16 18 1014.4 - - - - - - - - -
27/08:30am 26.3 NNW 17 19 1014.1 - - - - - - - - -
27/08:00am 26.4 NNW 17 19 1013.6 - - - - - - - - -
27/07:30am 26.4 NNW 15 18 1013.6 - - - - - - - - -
27/07:00am 26.3 NNW 15 17 1013.4 - - - - - - - - -
27/06:00am 25.6 N 15 - 1012.7 - - - - - - - - -
27/05:00am 25.4 NNW 13 - 1012.7 - - - - - - - - -
27/04:30am 25.5 NNW 12 15 1012.8 - - - - - - - - -
27/04:00am 25.4 NW 13 15 1012.6 - - - - - - - - -
27/03:30am 25.3 NW 13 15 1012.8 - - - - - - - - -
27/03:00am 25.3 NW 13 14 1012.8 - - - - - - - - -
27/02:30am 25.3 NNW 13 15 1012.8 - - - - - - - - -
27/02:00am 25.2 NNW 14 17 1012.8 - - - - - - - - -
27/01:30am 25.1 N 14 17 1013.2 - - - - - - - - -
27/01:00am 25.1 N 14 16 1013.3 - - - - - - - - -
27/12:30am 25.2 N 13 16 1013.6 - - - - - - - - -
27/12:00am 24.9 N 13 14 1013.9 - - - - - - - - -
 
Date/Time
EST
Temp

°C
Wind Pressure Rain
since 9am
mm
Weather Cloud Vis
km
Sea
Height
m
Swell
Dir
 
Speed
knots
Gust
knots
hPa Trend Height
m
Period
s
Dir
26/11:30pm 24.9 N 12 14 1014.4 - - - - - - - - -
26/11:00pm 25.0 N 12 14 1014.5 - - - - - - - - -
26/10:30pm 25.1 N 10 13 1015.2 - - - - - - - - -
26/10:00pm 25.0 N 10 12 1015.3 - - - - - - - - -
26/09:30pm 25.1 NNW 9 11 1015.5 - - - - - - - - -
26/09:00pm 25.1 NNW 8 10 1015.7 - - - - - - - - -
26/08:30pm 25.1 NNW 9 11 1015.6 - - - - - - - - -
26/08:00pm 25.2 NNW 9 12 1015.4 - - - - - - - - -
26/07:30pm 25.0 N 10 12 1015.2 - - - - - - - - -
26/07:00pm 25.0 N 10 12 1014.6 - - - - - - - - -
26/06:30pm 25.1 NNW 8 11 1014.4 - - - - - - - - -
26/06:00pm 24.9 NNW 9 11 1014.0 - - - - - - - - -
26/05:30pm 25.0 N 10 11 1013.4 - - - - - - - - -
26/05:00pm 25.1 NNW 9 11 1013.4 - - - - - - - - -
26/04:30pm 25.6 WNW 6 8 1013.9 - - - - - - - - -
26/04:00pm 25.5 NW 7 9 1013.6 - - - - - - - - -
26/03:30pm 25.6 NW 8 9 1013.5 - - - - - - - - -
26/03:00pm 25.5 WNW 6 8 1013.5 - - - - - - - - -
26/02:30pm 25.3 NNE 7 9 1013.7 - - - - - - - - -
26/02:00pm 25.7 NE 6 8 1013.7 - - - - - - - - -
26/01:30pm 25.4 NE 6 7 1014.3 - - - - - - - - -
26/01:00pm 25.3 ENE 7 8 1014.4 - - - - - - - - -
26/12:30pm 25.3 ENE 8 9 1014.9 - - - - - - - - -
26/12:00pm 25.3 ENE 8 11 1015.2 - - - - - - - - -
26/11:30am 25.2 E 8 9 1015.9 - - - - - - - - -
26/11:00am 25.2 E 9 10 1016.1 - - - - - - - - -
26/10:30am 25.2 ENE 8 9 1016.7 - - - - - - - - -
26/10:00am 25.3 ENE 7 8 1017.0 - - - - - - - - -
26/09:30am 25.4 ESE 8 9 1017.1 - - - - - - - - -
26/09:00am 25.3 SSE 8 9 1016.9 - - - - - - - - -
26/08:30am 25.0 SSW 7 8 1016.9 - - - - - - - - -
26/08:00am 25.1 SSW 7 8 1016.9 - - - - - - - - -
26/07:30am 25.4 SW 4 7 1016.8 - - - - - - - - -
26/07:00am 25.2 E 4 6 1016.6 - - - - - - - - -
26/06:00am 24.6 WSW 3 - 1015.9 - - - - - - - - -
26/05:00am 24.7 W 3 - 1015.5 - - - - - - - - -
26/04:00am 24.8 NE 7 - 1015.3 - - - - - - - - -
26/03:00am 24.7 ENE 6 - 1015.4 - - - - - - - - -
26/02:00am 24.9 E 6 - 1016.0 - - - - - - - - -
26/01:00am 24.7 S 7 - 1016.2 - - - - - - - - -
26/12:00am 24.8 NNE 9 11 1016.4 - - - - - - - - -
 
Date/Time
EST
Temp

°C
Wind Pressure Rain
since 9am
mm
Weather Cloud Vis
km
Sea
Height
m
Swell
Dir
 
Speed
knots
Gust
knots
hPa Trend Height
m
Period
s
Dir
25/11:30pm 24.8 ENE 10 13 1016.6 - - - - - - - - -
25/11:00pm 24.9 E 8 11 1016.6 - - - - - - - - -
25/10:30pm 24.9 SSE 8 11 1017.0 - - - - - - - - -
25/10:00pm 25.0 SE 9 11 1017.0 - - - - - - - - -
25/09:30pm 24.9 ESE 10 12 1016.8 - - - - - - - - -
25/09:00pm 25.0 ESE 11 13 1016.4 - - - - - - - - -
25/08:30pm 25.0 ESE 9 12 1016.7 - - - - - - - - -
25/08:00pm 25.0 ESE 11 13 1016.2 - - - - - - - - -
25/07:30pm 24.9 ESE 11 12 1016.3 - - - - - - - - -
25/07:00pm 24.9 ESE 10 12 1016.1 - - - - - - - - -
25/06:30pm 24.9 ESE 10 11 1015.8 - - - - - - - - -
25/06:00pm 24.9 ESE 10 12 1015.5 - - - - - - - - -
25/05:30pm 24.9 SE 11 13 1015.1 - - - - - - - - -
25/05:00pm 25.0 SE 9 11 1015.3 - - - - - - - - -
25/04:30pm 25.0 SE 9 12 1015.0 - - - - - - - - -
25/04:00pm 25.0 SE 9 11 1014.7 - - - - - - - - -

Other Formats:

Comma delimited format used in spreadsheet applications
http://www.bom.gov.au/fwo/IDQ60701/IDQ60701.94393.axf

JavaScript Object Notation format (JSON) in row-major order
http://www.bom.gov.au/fwo/IDQ60701/IDQ60701.94393.json